Time;durP1;ratioP1;P1;durP2;ratioP2;P2;SDS_P1;SDS_P2;PMS_P1;PMS_P2;Temp;Humidity;BMP_temperature;BMP_pressure;BME280_temperature;BME280_humidity;BME280_pressure;Samples;Min_cycle;Max_cycle;Signal;HPM_P1;HPM_P2
2021/09/01 00:01:42;;;;;;;1.90;1.40;;;23.50;56.50;;;;;;6244455;28;20025;-70
2021/09/01 00:04:42;;;;;;;2.33;1.58;;;23.50;56.50;;;;;;6243479;28;20029;-70
2021/09/01 00:07:43;;;;;;;2.42;1.40;;;23.50;56.50;;;;;;6243314;28;20048;-69
2021/09/01 00:10:44;;;;;;;1.70;1.50;;;23.50;56.50;;;;;;6243422;28;20029;-71
2021/09/01 00:13:44;;;;;;;1.60;1.50;;;23.50;56.40;;;;;;6244419;28;20588;-69
2021/09/01 00:16:45;;;;;;;1.65;1.42;;;23.50;56.50;;;;;;6243523;28;20021;-71
2021/09/01 00:19:45;;;;;;;1.40;1.30;;;23.50;56.50;;;;;;6244651;28;20059;-69
2021/09/01 00:22:46;;;;;;;1.85;1.33;;;23.60;56.60;;;;;;6244402;28;20140;-70
2021/09/01 00:25:48;;;;;;;1.92;1.35;;;23.50;56.50;;;;;;6244127;28;20048;-70
2021/09/01 00:28:48;;;;;;;1.40;1.30;;;23.50;56.50;;;;;;6243045;28;20032;-70
2021/09/01 00:31:49;;;;;;;1.95;1.45;;;23.50;56.50;;;;;;6242672;28;20021;-69
2021/09/01 00:34:50;;;;;;;1.67;1.05;;;23.50;56.50;;;;;;6242597;28;20119;-69
2021/09/01 00:37:50;;;;;;;1.60;1.27;;;23.50;56.50;;;;;;6243922;28;20021;-70
2021/09/01 00:40:55;;;;;;;1.45;1.25;;;23.50;56.40;;;;;;6244061;28;20030;-70
2021/09/01 00:43:58;;;;;;;1.20;1.10;;;23.60;56.50;;;;;;6241714;28;20121;-70
2021/09/01 00:46:59;;;;;;;1.95;1.20;;;23.50;56.50;;;;;;6234482;28;20041;-70
2021/09/01 00:49:59;;;;;;;1.50;1.08;;;23.50;56.40;;;;;;6233890;28;20022;-70
2021/09/01 00:53:00;;;;;;;1.65;1.40;;;23.50;56.50;;;;;;6237349;28;20020;-70
2021/09/01 00:56:01;;;;;;;2.05;1.65;;;23.50;56.50;;;;;;6243375;28;20029;-71
2021/09/01 00:59:01;;;;;;;1.77;1.52;;;23.60;56.50;;;;;;6243398;28;20083;-70
2021/09/01 01:02:02;;;;;;;2.35;1.40;;;23.50;56.40;;;;;;6241456;28;20469;-70
2021/09/01 01:05:04;;;;;;;1.40;1.20;;;23.50;56.40;;;;;;6242263;28;20722;-70
2021/09/01 01:08:04;;;;;;;1.98;1.50;;;23.50;56.50;;;;;;6241900;28;20399;-71
2021/09/01 01:11:11;;;;;;;2.17;1.35;;;23.50;56.40;;;;;;6243292;28;20348;-70
2021/09/01 01:14:11;;;;;;;2.00;1.50;;;23.50;56.50;;;;;;6233559;28;20022;-71
2021/09/01 01:17:15;;;;;;;1.30;1.20;;;23.50;56.50;;;;;;6225083;28;20156;-70
2021/09/01 01:20:16;;;;;;;1.30;1.20;;;23.50;56.50;;;;;;6242721;28;20021;-70
2021/09/01 01:23:18;;;;;;;1.33;1.17;;;23.50;56.60;;;;;;6241894;28;20068;-71
2021/09/01 01:26:19;;;;;;;2.38;1.30;;;23.50;56.50;;;;;;6243894;28;20026;-70
2021/09/01 01:29:20;;;;;;;1.80;1.58;;;23.50;56.50;;;;;;6242078;28;20033;-71
2021/09/01 01:32:21;;;;;;;1.55;1.23;;;23.50;56.50;;;;;;6241771;28;20152;-71
2021/09/01 01:35:24;;;;;;;1.25;1.10;;;23.60;56.50;;;;;;6241298;28;20021;-72
2021/09/01 01:38:25;;;;;;;1.50;1.40;;;23.50;56.50;;;;;;6242512;28;20083;-72
2021/09/01 01:41:25;;;;;;;1.58;1.35;;;23.50;56.50;;;;;;6242475;28;20438;-72
2021/09/01 01:44:26;;;;;;;1.33;1.20;;;23.50;56.50;;;;;;6241245;28;20036;-72
2021/09/01 01:47:26;;;;;;;1.90;1.40;;;23.60;56.60;;;;;;6240888;28;20044;-71
2021/09/01 01:50:27;;;;;;;1.42;1.13;;;23.50;56.50;;;;;;6241005;28;20091;-72
2021/09/01 01:53:29;;;;;;;1.20;1.10;;;23.60;56.50;;;;;;6240695;28;20025;-72
2021/09/01 01:56:30;;;;;;;1.55;1.30;;;23.50;56.50;;;;;;6241919;28;20392;-72
2021/09/01 01:59:30;;;;;;;1.40;1.20;;;23.60;56.60;;;;;;6242328;28;20037;-72
2021/09/01 02:02:31;;;;;;;2.20;1.40;;;23.50;56.50;;;;;;6241978;28;20078;-72
2021/09/01 02:05:32;;;;;;;2.40;1.20;;;23.50;56.60;;;;;;6240230;28;20030;-72
2021/09/01 02:08:32;;;;;;;1.70;1.40;;;23.60;56.60;;;;;;6240625;28;20032;-72
2021/09/01 02:11:33;;;;;;;1.40;1.20;;;23.50;56.60;;;;;;6242294;28;20030;-71
2021/09/01 02:14:34;;;;;;;1.38;1.17;;;23.50;56.50;;;;;;6232650;28;20018;-72
2021/09/01 02:17:35;;;;;;;2.05;1.50;;;23.50;56.60;;;;;;6219518;28;20033;-72
2021/09/01 02:20:35;;;;;;;1.90;1.48;;;23.50;56.60;;;;;;6241614;28;20116;-72
2021/09/01 02:23:36;;;;;;;1.27;1.10;;;23.60;57.30;;;;;;6240072;28;20083;-72
2021/09/01 02:26:37;;;;;;;1.42;1.30;;;23.50;56.50;;;;;;6240022;28;20494;-71
2021/09/01 02:29:37;;;;;;;1.35;1.05;;;23.50;56.50;;;;;;6239857;28;20479;-71
2021/09/01 02:32:38;;;;;;;1.35;1.20;;;23.50;56.50;;;;;;6241200;28;20025;-72
2021/09/01 02:35:39;;;;;;;2.20;1.30;;;23.50;56.50;;;;;;6240032;28;20037;-72
2021/09/01 02:38:44;;;;;;;1.35;1.20;;;23.50;56.50;;;;;;6241060;28;20142;-72
2021/09/01 02:41:45;;;;;;;1.55;1.40;;;23.50;56.50;;;;;;6240721;28;20391;-71
2021/09/01 02:44:46;;;;;;;0.95;0.88;;;23.50;56.40;;;;;;6241170;28;20033;-72
2021/09/01 02:47:47;;;;;;;1.30;1.17;;;23.50;56.50;;;;;;6240703;28;20034;-71
2021/09/01 02:50:48;;;;;;;1.45;1.05;;;23.50;56.50;;;;;;6239524;28;20105;-72
2021/09/01 02:53:48;;;;;;;1.25;1.05;;;23.50;56.40;;;;;;6239338;28;20075;-72
2021/09/01 02:56:49;;;;;;;0.95;0.82;;;23.50;56.50;;;;;;6241210;28;20061;-72
2021/09/01 02:59:49;;;;;;;1.08;0.98;;;23.50;56.40;;;;;;6240793;28;20033;-72
2021/09/01 03:02:50;;;;;;;1.83;1.42;;;23.50;56.40;;;;;;6240889;28;20029;-72
2021/09/01 03:05:51;;;;;;;1.23;0.95;;;23.50;57.20;;;;;;6240466;28;20037;-72
2021/09/01 03:08:51;;;;;;;1.88;1.20;;;23.50;56.50;;;;;;6239152;28;20022;-71
2021/09/01 03:11:52;;;;;;;1.30;1.10;;;23.50;56.40;;;;;;6241609;28;20328;-72
2021/09/01 03:14:52;;;;;;;1.63;1.23;;;23.50;56.40;;;;;;6235819;28;20214;-72
2021/09/01 03:17:53;;;;;;;1.98;1.55;;;23.50;56.50;;;;;;6239403;28;20036;-72
2021/09/01 03:20:53;;;;;;;1.95;0.98;;;23.50;56.40;;;;;;6240394;28;20040;-71
2021/09/01 03:23:54;;;;;;;1.45;1.20;;;23.50;56.50;;;;;;6240568;28;20037;-72
2021/09/01 03:26:54;;;;;;;1.30;1.17;;;23.50;56.50;;;;;;6240332;28;20026;-71
2021/09/01 03:29:55;;;;;;;1.30;1.10;;;23.50;56.50;;;;;;6240023;28;20433;-72
2021/09/01 03:32:56;;;;;;;1.08;0.98;;;23.50;56.50;;;;;;6240912;28;20018;-72
2021/09/01 03:35:57;;;;;;;2.72;1.65;;;23.50;56.60;;;;;;6240897;28;20021;-71
2021/09/01 03:38:57;;;;;;;1.50;1.17;;;23.50;56.50;;;;;;6240185;28;20029;-72
2021/09/01 03:41:58;;;;;;;1.45;1.20;;;23.50;56.50;;;;;;6238744;28;20029;-71
2021/09/01 03:44:58;;;;;;;1.33;1.20;;;23.50;56.50;;;;;;6240458;28;20033;-72
2021/09/01 03:47:59;;;;;;;1.30;1.10;;;23.50;56.50;;;;;;6238984;28;20253;-71
2021/09/01 03:51:00;;;;;;;2.05;1.25;;;23.50;56.60;;;;;;6240103;28;20104;-72
2021/09/01 03:54:01;;;;;;;1.10;0.90;;;23.50;56.50;;;;;;6240806;28;20483;-72
2021/09/01 03:57:02;;;;;;;1.10;1.00;;;23.50;56.60;;;;;;6239693;28;20056;-71
2021/09/01 04:00:36;;;;;;;1.40;1.17;;;23.50;56.50;;;;;;6238717;28;20038;-72
2021/09/01 04:03:37;;;;;;;1.42;1.10;;;23.50;56.50;;;;;;6238650;28;20474;-72
2021/09/01 04:06:37;;;;;;;1.13;1.02;;;23.50;56.50;;;;;;6238802;28;20037;-72
2021/09/01 04:09:38;;;;;;;1.05;0.95;;;23.50;56.50;;;;;;6240793;28;20398;-72
2021/09/01 04:12:38;;;;;;;2.10;1.00;;;23.50;56.50;;;;;;6239623;28;20479;-72
2021/09/01 04:15:39;;;;;;;1.10;1.00;;;23.50;56.50;;;;;;6236152;28;20388;-71
2021/09/01 04:18:40;;;;;;;1.65;1.45;;;23.50;56.60;;;;;;6239897;28;20410;-71
2021/09/01 04:21:40;;;;;;;1.45;1.00;;;23.50;56.50;;;;;;6242692;28;20029;-71
2021/09/01 04:24:41;;;;;;;1.20;1.10;;;23.50;56.70;;;;;;6244292;28;20515;-72
2021/09/01 04:27:41;;;;;;;1.88;1.38;;;23.50;56.50;;;;;;6242844;28;20164;-72
2021/09/01 04:30:42;;;;;;;1.45;1.23;;;23.50;56.50;;;;;;6244645;28;20029;-72
2021/09/01 04:33:42;;;;;;;1.40;1.30;;;23.50;57.20;;;;;;6244510;28;20067;-72
2021/09/01 04:36:43;;;;;;;1.20;0.93;;;23.50;56.40;;;;;;6244326;28;20329;-72
2021/09/01 04:39:43;;;;;;;1.38;1.27;;;23.50;56.40;;;;;;6244337;28;20025;-72
2021/09/01 04:42:46;;;;;;;1.50;1.35;;;23.50;56.30;;;;;;6242238;28;20025;-72
2021/09/01 04:45:46;;;;;;;1.00;0.90;;;23.50;56.50;;;;;;6242938;28;20025;-72
2021/09/01 04:48:47;;;;;;;1.27;1.10;;;23.50;56.30;;;;;;6243498;28;20040;-72
2021/09/01 04:51:50;;;;;;;1.50;1.20;;;23.50;56.30;;;;;;6245062;28;20021;-72
2021/09/01 04:54:51;;;;;;;1.48;1.17;;;23.50;56.30;;;;;;6239953;28;20041;-73
2021/09/01 04:57:51;;;;;;;1.00;0.90;;;23.50;56.30;;;;;;6234722;28;20054;-72
2021/09/01 05:00:53;;;;;;;1.13;1.02;;;23.50;56.30;;;;;;6234596;28;20029;-72
2021/09/01 05:03:54;;;;;;;1.25;1.08;;;23.50;56.30;;;;;;6244570;28;20025;-72
2021/09/01 05:06:54;;;;;;;1.17;1.08;;;23.50;56.30;;;;;;6244128;28;20116;-73
2021/09/01 05:09:55;;;;;;;2.45;1.33;;;23.50;56.30;;;;;;6242575;28;20076;-72
2021/09/01 05:12:55;;;;;;;1.23;1.13;;;23.50;56.30;;;;;;6234133;28;20033;-73
2021/09/01 05:15:56;;;;;;;0.90;0.90;;;23.50;56.30;;;;;;6219032;28;20022;-73
2021/09/01 05:18:56;;;;;;;1.38;1.00;;;23.50;56.30;;;;;;6240194;28;20030;-72
2021/09/01 05:22:00;;;;;;;1.15;0.93;;;23.50;56.30;;;;;;6243330;28;20033;-73
2021/09/01 05:25:08;;;;;;;1.90;1.17;;;23.50;56.30;;;;;;6243126;28;20476;-73
2021/09/01 05:28:14;;;;;;;1.00;0.90;;;23.50;56.30;;;;;;6243694;28;20045;-73
2021/09/01 05:31:15;;;;;;;1.20;1.10;;;23.50;56.30;;;;;;6242052;28;20486;-73
2021/09/01 05:34:18;;;;;;;1.35;1.00;;;23.50;56.40;;;;;;6243770;28;20052;-73
2021/09/01 05:37:19;;;;;;;1.38;1.08;;;23.50;56.30;;;;;;6243569;28;20063;-72
2021/09/01 05:40:21;;;;;;;1.10;1.00;;;23.50;56.30;;;;;;6243273;28;20056;-72
2021/09/01 05:43:22;;;;;;;1.65;1.13;;;23.50;56.30;;;;;;6243163;28;20506;-73
2021/09/01 05:46:22;;;;;;;0.95;0.88;;;23.60;56.40;;;;;;6243743;28;20025;-72
2021/09/01 05:49:23;;;;;;;1.10;1.00;;;23.50;56.40;;;;;;6241997;28;20372;-72
2021/09/01 05:52:25;;;;;;;1.35;1.25;;;23.50;56.40;;;;;;6241565;28;20056;-73
2021/09/01 05:55:31;;;;;;;1.60;1.10;;;23.50;56.30;;;;;;6242741;28;20341;-73
2021/09/01 05:58:35;;;;;;;1.20;1.00;;;23.50;56.30;;;;;;6241600;28;20134;-74
2021/09/01 06:01:43;;;;;;;1.10;1.00;;;23.50;56.30;;;;;;6235302;28;20403;-73
2021/09/01 06:04:45;;;;;;;4.43;2.10;;;23.50;56.30;;;;;;6244846;28;20529;-73
2021/09/01 06:07:54;;;;;;;4.03;1.95;;;23.50;56.10;;;;;;6246585;28;20034;-73
2021/09/01 06:10:59;;;;;;;4.55;2.60;;;23.50;55.30;;;;;;6245607;28;20041;-73
2021/09/01 06:14:01;;;;;;;3.03;2.22;;;23.50;55.50;;;;;;6245980;28;20068;-73
2021/09/01 06:17:02;;;;;;;4.50;1.95;;;23.50;54.70;;;;;;6244622;28;20027;-75
2021/09/01 06:20:03;;;;;;;5.55;2.50;;;23.50;54.90;;;;;;6244582;28;20030;-73
2021/09/01 06:23:05;;;;;;;4.15;2.58;;;23.50;54.60;;;;;;6246032;28;20438;-75
2021/09/01 06:26:05;;;;;;;6.45;3.10;;;23.50;54.60;;;;;;6244472;28;20095;-73
2021/09/01 06:29:06;;;;;;;9.20;4.40;;;23.40;54.20;;;;;;6244424;28;20372;-72
2021/09/01 06:32:07;;;;;;;8.95;3.53;;;23.40;53.90;;;;;;6244680;28;20098;-72
2021/09/01 06:35:08;;;;;;;5.82;3.70;;;23.50;54.20;;;;;;6243230;28;20053;-73
2021/09/01 06:38:09;;;;;;;4.55;3.28;;;23.50;54.40;;;;;;6245266;28;20033;-73
2021/09/01 06:41:09;;;;;;;6.65;3.65;;;23.50;54.50;;;;;;6243873;28;20060;-74
2021/09/01 06:44:10;;;;;;;6.70;3.45;;;23.50;54.50;;;;;;6243943;28;20025;-74
2021/09/01 06:47:11;;;;;;;7.93;3.75;;;23.50;54.80;;;;;;6244508;28;20037;-73
2021/09/01 06:50:14;;;;;;;5.47;3.20;;;23.50;54.80;;;;;;6245205;28;20036;-73
2021/09/01 06:53:15;;;;;;;3.90;2.97;;;23.50;54.80;;;;;;6241154;28;20430;-73
2021/09/01 06:56:16;;;;;;;6.55;3.30;;;23.50;54.90;;;;;;6244683;28;20038;-73
2021/09/01 06:59:17;;;;;;;4.45;3.00;;;23.50;54.90;;;;;;6245088;28;20030;-74
2021/09/01 07:02:17;;;;;;;5.32;3.25;;;23.50;55.80;;;;;;6245281;28;20022;-74
2021/09/01 07:05:19;;;;;;;4.15;3.35;;;23.50;55.00;;;;;;6243683;28;20033;-72
2021/09/01 07:08:22;;;;;;;6.50;3.17;;;23.50;55.10;;;;;;6243604;28;20028;-73
2021/09/01 07:11:22;;;;;;;7.93;3.42;;;23.50;55.20;;;;;;6243624;28;20032;-74
2021/09/01 07:14:23;;;;;;;4.95;3.08;;;23.50;55.30;;;;;;6239330;28;20360;-74
2021/09/01 07:17:24;;;;;;;4.20;3.00;;;23.50;55.20;;;;;;6243874;28;20099;-76
2021/09/01 07:20:25;;;;;;;3.17;2.63;;;23.50;55.20;;;;;;6243316;28;20049;-74
2021/09/01 07:23:26;;;;;;;4.03;2.83;;;23.50;55.30;;;;;;6242771;28;20030;-73
2021/09/01 07:26:26;;;;;;;4.47;2.95;;;23.50;55.40;;;;;;6244337;28;20113;-73
2021/09/01 07:29:27;;;;;;;3.58;2.53;;;23.50;55.40;;;;;;6242779;28;20036;-74
2021/09/01 07:32:27;;;;;;;2.70;2.35;;;23.50;55.40;;;;;;6242498;28;20043;-73
2021/09/01 07:35:28;;;;;;;4.00;2.85;;;23.50;55.50;;;;;;6244001;28;20098;-73
2021/09/01 07:38:28;;;;;;;4.90;2.90;;;23.50;55.50;;;;;;6242428;28;20165;-73
2021/09/01 07:41:29;;;;;;;3.88;2.85;;;23.50;55.50;;;;;;6242332;28;20026;-74
2021/09/01 07:44:30;;;;;;;4.22;2.83;;;23.50;55.40;;;;;;6242531;28;20042;-73
2021/09/01 07:47:30;;;;;;;3.70;2.90;;;23.50;55.50;;;;;;6242069;28;20168;-74
2021/09/01 07:50:32;;;;;;;4.70;2.50;;;23.50;55.60;;;;;;6233924;28;20030;-73
2021/09/01 07:53:34;;;;;;;5.63;3.17;;;23.50;55.40;;;;;;6218594;28;20022;-74
2021/09/01 07:56:34;;;;;;;3.60;2.63;;;23.50;55.60;;;;;;6238512;28;20502;-73
2021/09/01 07:59:35;;;;;;;3.45;2.30;;;23.50;55.50;;;;;;6248376;28;20021;-74
2021/09/01 08:02:37;;;;;;;3.20;2.58;;;23.50;55.50;;;;;;6246782;28;20021;-74
2021/09/01 08:05:38;;;;;;;3.45;2.67;;;23.50;55.60;;;;;;6247863;28;20029;-73
2021/09/01 08:08:39;;;;;;;3.47;2.65;;;23.50;55.60;;;;;;6247082;28;20391;-73
2021/09/01 08:11:40;;;;;;;3.00;2.42;;;23.50;55.60;;;;;;6247851;28;20041;-73
2021/09/01 08:14:40;;;;;;;2.97;2.22;;;23.50;55.50;;;;;;6236153;28;20022;-74
2021/09/01 08:17:42;;;;;;;3.40;2.38;;;23.50;55.60;;;;;;6242176;28;20032;-73
2021/09/01 08:20:43;;;;;;;3.35;2.40;;;23.50;55.60;;;;;;6247471;28;20049;-72
2021/09/01 08:23:43;;;;;;;3.78;2.53;;;23.50;55.60;;;;;;6248735;28;20031;-73
2021/09/01 08:26:44;;;;;;;2.83;2.30;;;23.50;55.60;;;;;;6248741;28;20021;-74
2021/09/01 08:29:45;;;;;;;3.70;2.45;;;23.50;55.70;;;;;;6248234;28;20030;-75
2021/09/01 08:32:45;;;;;;;2.97;2.45;;;23.50;55.70;;;;;;6246783;28;20021;-71
2021/09/01 08:35:46;;;;;;;4.63;2.97;;;23.50;55.60;;;;;;6248506;28;20025;-74
2021/09/01 08:38:47;;;;;;;2.78;2.20;;;23.50;55.60;;;;;;6248686;28;20034;-72
2021/09/01 08:41:49;;;;;;;3.15;2.22;;;23.50;55.70;;;;;;6248757;28;20025;-72
2021/09/01 08:44:50;;;;;;;2.88;2.35;;;23.50;55.70;;;;;;6247708;28;20075;-72
2021/09/01 08:47:53;;;;;;;3.63;2.42;;;23.50;55.70;;;;;;6246104;28;20044;-71
2021/09/01 08:50:57;;;;;;;4.78;2.35;;;23.50;55.70;;;;;;6245813;28;20022;-72
2021/09/01 08:53:58;;;;;;;2.80;2.30;;;23.50;55.70;;;;;;6245621;28;20029;-72
2021/09/01 08:56:59;;;;;;;3.47;2.30;;;23.50;55.80;;;;;;6248054;28;20072;-72
2021/09/01 08:59:59;;;;;;;2.53;2.28;;;23.50;55.70;;;;;;6247264;28;20394;-72
2021/09/01 09:03:00;;;;;;;3.15;2.30;;;23.50;55.80;;;;;;6245490;28;20075;-72
2021/09/01 09:06:05;;;;;;;3.58;2.53;;;23.50;55.80;;;;;;6258006;28;20026;-72
2021/09/01 09:09:10;;;;;;;3.00;2.20;;;23.50;55.80;;;;;;6246305;28;20025;-71
2021/09/01 09:12:10;;;;;;;2.47;1.98;;;23.50;55.80;;;;;;6245465;28;20029;-72
2021/09/01 09:15:14;;;;;;;2.90;2.28;;;23.50;55.80;;;;;;6246186;28;20104;-72
2021/09/01 09:18:26;;;;;;;3.55;2.10;;;23.50;55.80;;;;;;6246113;28;20026;-72
2021/09/01 09:21:34;;;;;;;2.92;2.33;;;23.50;55.80;;;;;;6246373;28;20032;-72
2021/09/01 09:24:35;;;;;;;3.00;2.28;;;23.50;55.80;;;;;;6245148;28;20029;-72
2021/09/01 09:27:49;;;;;;;3.03;2.42;;;23.50;55.80;;;;;;6244928;28;20445;-72
2021/09/01 09:30:50;;;;;;;2.88;2.10;;;23.50;55.80;;;;;;6244575;28;20499;-71
2021/09/01 09:33:50;;;;;;;3.83;2.35;;;23.50;55.80;;;;;;6245934;28;20021;-72
2021/09/01 09:37:04;;;;;;;2.75;1.90;;;23.50;55.80;;;;;;6244578;28;20053;-72
2021/09/01 09:40:13;;;;;;;2.83;2.30;;;23.50;55.80;;;;;;6246073;28;20033;-72
2021/09/01 09:43:22;;;;;;;2.95;2.17;;;23.50;55.80;;;;;;6245726;28;20570;-72
2021/09/01 09:46:23;;;;;;;2.75;2.50;;;23.50;55.80;;;;;;6246208;28;20021;-72
2021/09/01 09:49:29;;;;;;;2.90;2.13;;;23.50;55.80;;;;;;6243724;28;20026;-72
2021/09/01 09:52:36;;;;;;;2.92;2.40;;;23.50;55.80;;;;;;6245450;28;20017;-72
2021/09/01 09:55:37;;;;;;;3.03;2.10;;;23.50;55.90;;;;;;6245261;28;20025;-72
2021/09/01 09:58:41;;;;;;;2.33;2.00;;;23.50;55.90;;;;;;6245070;28;20475;-71
2021/09/01 10:01:43;;;;;;;4.18;2.25;;;23.50;55.90;;;;;;6245685;28;20112;-72
2021/09/01 10:04:44;;;;;;;2.85;2.20;;;23.50;55.90;;;;;;6243835;28;20025;-72
2021/09/01 10:07:46;;;;;;;2.63;2.00;;;23.50;55.90;;;;;;6243614;28;20025;-72
2021/09/01 10:10:47;;;;;;;2.67;2.00;;;23.50;55.90;;;;;;6245016;28;20025;-72
2021/09/01 10:13:50;;;;;;;3.05;1.90;;;23.50;55.90;;;;;;6244200;28;20048;-72
2021/09/01 10:17:05;;;;;;;2.83;2.20;;;23.50;55.90;;;;;;6245408;28;20505;-72
2021/09/01 10:20:09;;;;;;;2.85;2.13;;;23.50;55.90;;;;;;6245325;28;20056;-72
2021/09/01 10:23:10;;;;;;;3.38;2.00;;;23.50;55.90;;;;;;6245688;28;20033;-72
2021/09/01 10:26:30;;;;;;;3.05;2.08;;;23.50;55.90;;;;;;6246210;28;20387;-72
2021/09/01 10:29:37;;;;;;;2.38;1.80;;;23.50;55.90;;;;;;6246515;28;20029;-73
2021/09/01 10:32:45;;;;;;;2.13;1.83;;;23.50;55.90;;;;;;6246400;28;20084;-72
2021/09/01 10:35:46;;;;;;;3.35;2.20;;;23.50;55.90;;;;;;6247063;28;20036;-72
2021/09/01 10:38:47;;;;;;;2.90;2.35;;;23.50;56.00;;;;;;6245131;28;20103;-72
2021/09/01 10:41:47;;;;;;;3.22;2.22;;;23.50;56.00;;;;;;6246227;28;20029;-72
2021/09/01 10:44:48;;;;;;;2.55;2.05;;;23.50;56.00;;;;;;6246299;28;20029;-72
2021/09/01 10:47:52;;;;;;;2.70;2.10;;;23.50;56.00;;;;;;6220322;28;20099;-72
2021/09/01 10:50:52;;;;;;;3.08;2.10;;;23.50;56.00;;;;;;6241138;28;20041;-72
2021/09/01 10:53:53;;;;;;;2.20;1.70;;;23.50;56.00;;;;;;6244786;28;20025;-72
2021/09/01 10:56:54;;;;;;;2.83;2.08;;;23.50;56.10;;;;;;6245005;28;20071;-72
2021/09/01 10:59:59;;;;;;;2.58;1.95;;;23.50;56.00;;;;;;6245734;28;20075;-72
2021/09/01 11:03:00;;;;;;;3.17;2.47;;;23.50;56.00;;;;;;6246408;28;20045;-72
2021/09/01 11:06:25;;;;;;;2.97;1.83;;;23.50;56.10;;;;;;6244593;28;20029;-72
2021/09/01 11:09:26;;;;;;;2.15;1.80;;;23.50;56.10;;;;;;6245683;28;20022;-72
2021/09/01 11:12:28;;;;;;;2.42;1.92;;;23.50;56.20;;;;;;6245911;28;20028;-72
2021/09/01 11:15:45;;;;;;;2.47;1.95;;;23.50;56.10;;;;;;6236518;28;20036;-72
2021/09/01 11:19:08;;;;;;;2.50;2.00;;;23.50;56.10;;;;;;6221151;28;20030;-72
2021/09/01 11:22:11;;;;;;;2.95;1.95;;;23.50;56.10;;;;;;6220289;28;20399;-72
2021/09/01 11:25:14;;;;;;;1.90;1.58;;;23.50;56.20;;;;;;6219767;28;20029;-72
2021/09/01 11:28:15;;;;;;;1.95;1.63;;;23.50;56.20;;;;;;6220665;28;20026;-72
2021/09/01 11:31:21;;;;;;;2.22;1.77;;;23.50;56.20;;;;;;6238533;28;20078;-72
2021/09/01 11:34:23;;;;;;;3.00;2.15;;;23.50;56.30;;;;;;6251027;28;20083;-72
2021/09/01 11:37:24;;;;;;;2.72;1.95;;;23.50;56.20;;;;;;6250431;28;20029;-72
2021/09/01 11:40:42;;;;;;;2.05;1.85;;;23.50;56.20;;;;;;6250482;28;20030;-72
2021/09/01 11:43:43;;;;;;;2.42;1.92;;;23.50;56.30;;;;;;6249246;28;20051;-72
2021/09/01 11:46:44;;;;;;;1.95;1.70;;;23.50;56.30;;;;;;6249288;28;20022;-72
2021/09/01 11:49:44;;;;;;;2.55;1.92;;;23.50;56.30;;;;;;6250501;28;20044;-73
2021/09/01 11:52:51;;;;;;;2.08;1.55;;;23.50;56.30;;;;;;6227426;28;20102;-72
2021/09/01 11:55:52;;;;;;;2.10;1.70;;;23.50;56.30;;;;;;6223657;28;20076;-72
2021/09/01 11:58:57;;;;;;;2.50;1.98;;;23.50;56.30;;;;;;6224245;28;20029;-72
2021/09/01 12:01:59;;;;;;;2.85;1.85;;;23.50;56.30;;;;;;6239185;28;20056;-72
2021/09/01 12:05:00;;;;;;;2.95;1.92;;;23.50;56.30;;;;;;6249729;28;20029;-72
2021/09/01 12:08:00;;;;;;;2.58;1.90;;;23.50;56.30;;;;;;6248301;28;20025;-71
2021/09/01 12:11:01;;;;;;;2.58;1.73;;;23.50;56.30;;;;;;6248349;28;20547;-71
2021/09/01 12:14:07;;;;;;;2.88;2.20;;;23.50;56.30;;;;;;6241649;28;20014;-71
2021/09/01 12:17:17;;;;;;;2.05;1.55;;;23.50;56.40;;;;;;6236845;28;20022;-70
2021/09/01 12:20:17;;;;;;;2.10;1.70;;;23.50;56.40;;;;;;6246776;28;20558;-71
2021/09/01 12:23:19;;;;;;;2.22;1.75;;;23.50;56.40;;;;;;6246501;28;20040;-71
2021/09/01 12:26:19;;;;;;;1.92;1.50;;;23.50;56.40;;;;;;6243765;28;20148;-71
2021/09/01 12:29:43;;;;;;;2.33;1.70;;;23.50;56.50;;;;;;6248098;28;20025;-71
2021/09/01 12:32:55;;;;;;;2.13;1.55;;;23.50;57.20;;;;;;6231413;28;20018;-72
2021/09/01 12:36:00;;;;;;;2.13;1.73;;;23.50;56.60;;;;;;6223870;28;20137;-71
2021/09/01 12:39:00;;;;;;;;;;;23.50;56.60;;;;;;6248622;28;20036;-71
2021/09/01 12:42:00;;;;;;;2.25;1.60;;;23.50;56.60;;;;;;6244882;28;19905;-71
2021/09/01 12:45:07;;;;;;;2.15;1.75;;;23.50;56.60;;;;;;6247645;28;20042;-71
2021/09/01 12:48:10;;;;;;;2.50;1.50;;;23.50;56.60;;;;;;6246354;28;20036;-71
2021/09/01 12:51:11;;;;;;;1.88;1.60;;;23.50;56.60;;;;;;6246026;28;20478;-71
2021/09/01 12:54:12;;;;;;;2.75;1.80;;;23.50;56.60;;;;;;6237943;28;20506;-71
2021/09/01 12:57:13;;;;;;;2.20;1.60;;;23.50;56.60;;;;;;6245353;28;20050;-71
2021/09/01 13:00:14;;;;;;;2.72;1.80;;;23.50;56.70;;;;;;6247880;28;20728;-71
2021/09/01 13:03:14;;;;;;;2.33;1.70;;;23.50;56.70;;;;;;6245665;28;20387;-70
2021/09/01 13:06:15;;;;;;;2.25;1.60;;;23.50;56.70;;;;;;6247535;28;20022;-71
2021/09/01 13:09:15;;;;;;;2.03;1.40;;;23.50;56.70;;;;;;6245238;28;20489;-71
2021/09/01 13:12:16;;;;;;;2.72;1.30;;;23.50;56.70;;;;;;6245713;28;20025;-70
2021/09/01 13:15:17;;;;;;;2.67;1.90;;;23.50;56.70;;;;;;6230143;28;20044;-71
2021/09/01 13:18:17;;;;;;;2.42;1.83;;;23.50;56.80;;;;;;6224397;28;20026;-71
2021/09/01 13:21:18;;;;;;;2.45;2.05;;;23.50;56.80;;;;;;6222023;28;20034;-72
2021/09/01 13:24:19;;;;;;;1.55;1.42;;;23.50;56.70;;;;;;6231686;28;20033;-71
2021/09/01 13:27:19;;;;;;;2.20;1.73;;;23.50;56.70;;;;;;6239294;28;20498;-71
2021/09/01 13:30:20;;;;;;;1.75;1.40;;;23.50;56.80;;;;;;6246022;28;20037;-71
2021/09/01 13:33:21;;;;;;;1.92;1.60;;;23.50;56.80;;;;;;6244948;28;20324;-72
2021/09/01 13:36:21;;;;;;;1.67;1.40;;;23.50;56.80;;;;;;6245452;28;20382;-71
2021/09/01 13:39:22;;;;;;;1.85;1.58;;;23.50;56.80;;;;;;6246056;28;20035;-71
2021/09/01 13:42:23;;;;;;;1.95;1.40;;;23.50;56.80;;;;;;6244502;28;20029;-71
2021/09/01 13:45:23;;;;;;;2.22;1.50;;;23.50;56.80;;;;;;6244539;28;20034;-71
2021/09/01 13:48:24;;;;;;;2.08;1.52;;;23.50;56.80;;;;;;6244686;28;20533;-71
2021/09/01 13:51:24;;;;;;;2.22;1.75;;;23.50;56.80;;;;;;6245451;28;20044;-71
2021/09/01 13:54:27;;;;;;;2.15;1.50;;;23.50;56.80;;;;;;6245700;28;20025;-71
2021/09/01 13:57:27;;;;;;;1.80;1.60;;;23.50;56.80;;;;;;6244271;28;20675;-71
2021/09/01 14:00:31;;;;;;;1.50;1.40;;;23.50;56.80;;;;;;6246254;28;20057;-71
2021/09/01 14:03:32;;;;;;;2.58;1.88;;;23.50;56.80;;;;;;6245554;28;20033;-71
2021/09/01 14:06:33;;;;;;;1.60;1.35;;;23.50;56.80;;;;;;6244336;28;20088;-71
2021/09/01 14:09:34;;;;;;;2.38;1.60;;;23.50;56.80;;;;;;6243727;28;20022;-71
2021/09/01 14:12:35;;;;;;;1.80;1.23;;;23.40;56.80;;;;;;6236096;28;20538;-71
2021/09/01 14:15:36;;;;;;;1.77;1.40;;;23.50;56.80;;;;;;6239707;28;20418;-71
2021/09/01 14:18:36;;;;;;;2.03;1.58;;;23.50;56.80;;;;;;6244287;28;20034;-71
2021/09/01 14:21:37;;;;;;;1.85;1.38;;;23.50;56.80;;;;;;6229736;28;20071;-70
2021/09/01 14:24:37;;;;;;;1.67;1.40;;;23.50;56.90;;;;;;6234000;28;20034;-75
2021/09/01 14:27:38;;;;;;;1.60;1.50;;;23.50;56.80;;;;;;6241965;28;20450;-72
2021/09/01 14:30:39;;;;;;;2.88;1.60;;;23.50;56.80;;;;;;6233610;28;20443;-72
2021/09/01 14:33:40;;;;;;;3.58;1.55;;;23.50;57.20;;;;;;6249444;28;20233;-73
2021/09/01 14:36:40;;;;;;;5.00;1.60;;;23.50;57.20;;;;;;6228207;28;20030;-73
2021/09/01 14:39:41;;;;;;;5.60;1.77;;;23.50;57.10;;;;;;6242077;28;20105;-72
2021/09/01 14:42:41;;;;;;;2.33;1.50;;;23.50;57.00;;;;;;6243013;28;20438;-72
2021/09/01 14:45:42;;;;;;;5.10;1.65;;;23.50;57.00;;;;;;6235297;28;20076;-73
2021/09/01 14:48:43;;;;;;;2.40;1.48;;;23.50;57.00;;;;;;6231715;28;20112;-72
2021/09/01 14:51:44;;;;;;;3.25;1.83;;;23.50;57.00;;;;;;6242449;28;20048;-72
2021/09/01 14:54:46;;;;;;;3.88;1.77;;;23.50;57.00;;;;;;6234768;28;20025;-73
2021/09/01 14:57:47;;;;;;;3.13;1.80;;;23.50;56.90;;;;;;6223089;28;20616;-73
2021/09/01 15:00:49;;;;;;;2.80;1.70;;;23.50;57.00;;;;;;6233519;28;20497;-73
2021/09/01 15:03:49;;;;;;;4.93;1.90;;;23.50;57.00;;;;;;6230212;28;20613;-73
2021/09/01 15:06:50;;;;;;;3.92;1.77;;;23.40;56.90;;;;;;6241389;28;20034;-73
2021/09/01 15:09:50;;;;;;;1.85;1.40;;;23.50;57.00;;;;;;6227936;28;20079;-73
2021/09/01 15:12:52;;;;;;;3.53;1.75;;;23.50;57.00;;;;;;6242404;28;20025;-73
2021/09/01 15:15:53;;;;;;;2.50;1.70;;;23.50;57.10;;;;;;6236210;28;20384;-73
2021/09/01 15:18:54;;;;;;;3.53;1.90;;;23.40;56.90;;;;;;6227160;28;20029;-73
2021/09/01 15:21:54;;;;;;;2.60;1.85;;;23.50;57.10;;;;;;6241551;28;20025;-73
2021/09/01 15:24:55;;;;;;;4.93;1.80;;;23.50;57.10;;;;;;6233906;28;20079;-73
2021/09/01 15:27:55;;;;;;;3.08;1.67;;;23.50;57.10;;;;;;6230331;28;20034;-73
2021/09/01 15:30:59;;;;;;;2.70;1.80;;;23.40;57.00;;;;;;6241464;28;20048;-73
2021/09/01 15:33:59;;;;;;;2.95;1.63;;;23.50;57.10;;;;;;6237653;28;20052;-73
2021/09/01 15:37:00;;;;;;;2.80;2.03;;;23.50;57.10;;;;;;6233139;28;20037;-73
2021/09/01 15:40:04;;;;;;;2.63;1.75;;;23.40;57.00;;;;;;6228183;28;20137;-72
2021/09/01 15:43:07;;;;;;;2.60;1.70;;;23.50;57.20;;;;;;6223362;28;20017;-73
2021/09/01 15:46:14;;;;;;;3.72;1.90;;;23.50;57.20;;;;;;6227672;28;20021;-73
2021/09/01 15:49:15;;;;;;;3.03;1.90;;;23.40;57.10;;;;;;6238389;28;20060;-73